sensor_id;sensor_type;location;lat;lon;timestamp;P1;durP1;ratioP1;P2;durP2;ratioP2
23676;SDS011;31493;49.058;12.190;2023-09-07T00:01:30;5.35;;;4.15;;
23676;SDS011;31493;49.058;12.190;2023-09-07T00:03:57;5.97;;;4.07;;
23676;SDS011;31493;49.058;12.190;2023-09-07T00:06:24;5.78;;;4.40;;
23676;SDS011;31493;49.058;12.190;2023-09-07T00:08:52;6.28;;;4.22;;
23676;SDS011;31493;49.058;12.190;2023-09-07T00:11:20;5.00;;;4.25;;
23676;SDS011;31493;49.058;12.190;2023-09-07T00:13:47;6.28;;;4.20;;
23676;SDS011;31493;49.058;12.190;2023-09-07T00:16:16;5.40;;;4.55;;
23676;SDS011;31493;49.058;12.190;2023-09-07T00:18:43;7.43;;;4.70;;
23676;SDS011;31493;49.058;12.190;2023-09-07T00:21:10;5.90;;;4.38;;
23676;SDS011;31493;49.058;12.190;2023-09-07T00:23:39;4.85;;;4.30;;
23676;SDS011;31493;49.058;12.190;2023-09-07T00:26:06;5.53;;;4.45;;
23676;SDS011;31493;49.058;12.190;2023-09-07T00:28:35;4.82;;;4.32;;
23676;SDS011;31493;49.058;12.190;2023-09-07T00:31:02;5.88;;;4.25;;
23676;SDS011;31493;49.058;12.190;2023-09-07T00:33:29;8.15;;;4.15;;
23676;SDS011;31493;49.058;12.190;2023-09-07T00:35:56;7.05;;;4.28;;
23676;SDS011;31493;49.058;12.190;2023-09-07T00:38:23;5.72;;;4.55;;
23676;SDS011;31493;49.058;12.190;2023-09-07T00:40:50;6.18;;;4.30;;
23676;SDS011;31493;49.058;12.190;2023-09-07T00:43:17;6.55;;;4.57;;
23676;SDS011;31493;49.058;12.190;2023-09-07T00:45:45;5.68;;;4.18;;
23676;SDS011;31493;49.058;12.190;2023-09-07T00:48:13;4.75;;;4.20;;
23676;SDS011;31493;49.058;12.190;2023-09-07T00:50:41;6.90;;;4.30;;
23676;SDS011;31493;49.058;12.190;2023-09-07T00:53:10;5.93;;;4.17;;
23676;SDS011;31493;49.058;12.190;2023-09-07T00:55:37;7.37;;;4.50;;
23676;SDS011;31493;49.058;12.190;2023-09-07T00:58:05;7.07;;;4.63;;
23676;SDS011;31493;49.058;12.190;2023-09-07T01:00:32;5.65;;;4.30;;
23676;SDS011;31493;49.058;12.190;2023-09-07T01:03:02;7.90;;;4.35;;
23676;SDS011;31493;49.058;12.190;2023-09-07T01:08:01;8.98;;;4.43;;
23676;SDS011;31493;49.058;12.190;2023-09-07T01:10:33;6.20;;;4.40;;
23676;SDS011;31493;49.058;12.190;2023-09-07T01:13:00;9.85;;;4.55;;
23676;SDS011;31493;49.058;12.190;2023-09-07T01:15:27;7.32;;;4.30;;
23676;SDS011;31493;49.058;12.190;2023-09-07T01:17:54;4.93;;;4.13;;
23676;SDS011;31493;49.058;12.190;2023-09-07T01:20:24;5.88;;;4.50;;
23676;SDS011;31493;49.058;12.190;2023-09-07T01:22:53;6.28;;;4.70;;
23676;SDS011;31493;49.058;12.190;2023-09-07T01:25:21;6.68;;;5.00;;
23676;SDS011;31493;49.058;12.190;2023-09-07T01:27:49;7.50;;;4.25;;
23676;SDS011;31493;49.058;12.190;2023-09-07T01:30:17;6.40;;;4.50;;
23676;SDS011;31493;49.058;12.190;2023-09-07T01:32:45;5.68;;;4.45;;
23676;SDS011;31493;49.058;12.190;2023-09-07T01:35:12;7.20;;;4.70;;
23676;SDS011;31493;49.058;12.190;2023-09-07T01:37:42;7.60;;;4.60;;
23676;SDS011;31493;49.058;12.190;2023-09-07T01:40:10;7.80;;;4.63;;
23676;SDS011;31493;49.058;12.190;2023-09-07T01:42:37;6.07;;;4.40;;
23676;SDS011;31493;49.058;12.190;2023-09-07T01:45:05;7.47;;;4.38;;
23676;SDS011;31493;49.058;12.190;2023-09-07T01:47:32;5.63;;;4.57;;
23676;SDS011;31493;49.058;12.190;2023-09-07T01:49:59;6.25;;;4.80;;
23676;SDS011;31493;49.058;12.190;2023-09-07T01:52:26;9.32;;;4.30;;
23676;SDS011;31493;49.058;12.190;2023-09-07T01:54:55;6.20;;;4.65;;
23676;SDS011;31493;49.058;12.190;2023-09-07T01:57:23;5.25;;;4.60;;
23676;SDS011;31493;49.058;12.190;2023-09-07T01:59:50;7.95;;;4.75;;
23676;SDS011;31493;49.058;12.190;2023-09-07T02:02:17;9.00;;;5.20;;
23676;SDS011;31493;49.058;12.190;2023-09-07T02:04:44;6.07;;;4.45;;
23676;SDS011;31493;49.058;12.190;2023-09-07T02:07:11;6.85;;;4.55;;
23676;SDS011;31493;49.058;12.190;2023-09-07T02:09:40;7.75;;;4.43;;
23676;SDS011;31493;49.058;12.190;2023-09-07T02:12:08;7.07;;;4.70;;
23676;SDS011;31493;49.058;12.190;2023-09-07T02:14:37;8.07;;;5.05;;
23676;SDS011;31493;49.058;12.190;2023-09-07T02:17:04;5.47;;;4.53;;
23676;SDS011;31493;49.058;12.190;2023-09-07T02:19:31;4.93;;;4.18;;
23676;SDS011;31493;49.058;12.190;2023-09-07T02:21:58;7.57;;;4.60;;
23676;SDS011;31493;49.058;12.190;2023-09-07T02:24:25;6.60;;;4.50;;
23676;SDS011;31493;49.058;12.190;2023-09-07T02:26:52;8.05;;;4.85;;
23676;SDS011;31493;49.058;12.190;2023-09-07T02:29:19;7.88;;;4.50;;
23676;SDS011;31493;49.058;12.190;2023-09-07T02:31:48;6.60;;;4.78;;
23676;SDS011;31493;49.058;12.190;2023-09-07T02:34:15;7.43;;;4.53;;
23676;SDS011;31493;49.058;12.190;2023-09-07T02:36:42;6.47;;;4.75;;
23676;SDS011;31493;49.058;12.190;2023-09-07T02:39:09;5.63;;;4.30;;
23676;SDS011;31493;49.058;12.190;2023-09-07T02:41:37;4.55;;;4.00;;
23676;SDS011;31493;49.058;12.190;2023-09-07T02:44:04;6.90;;;4.38;;
23676;SDS011;31493;49.058;12.190;2023-09-07T02:46:32;7.05;;;4.55;;
23676;SDS011;31493;49.058;12.190;2023-09-07T02:49:00;5.60;;;4.13;;
23676;SDS011;31493;49.058;12.190;2023-09-07T02:51:27;6.35;;;4.50;;
23676;SDS011;31493;49.058;12.190;2023-09-07T02:53:56;8.98;;;4.30;;
23676;SDS011;31493;49.058;12.190;2023-09-07T02:56:23;7.70;;;4.20;;
23676;SDS011;31493;49.058;12.190;2023-09-07T02:58:51;5.00;;;4.32;;
23676;SDS011;31493;49.058;12.190;2023-09-07T03:01:18;9.20;;;4.65;;
23676;SDS011;31493;49.058;12.190;2023-09-07T03:03:47;9.90;;;4.63;;
23676;SDS011;31493;49.058;12.190;2023-09-07T03:23:07;5.88;;;4.57;;
23676;SDS011;31493;49.058;12.190;2023-09-07T03:25:34;5.93;;;4.40;;
23676;SDS011;31493;49.058;12.190;2023-09-07T03:28:01;7.88;;;4.30;;
23676;SDS011;31493;49.058;12.190;2023-09-07T03:30:29;11.82;;;4.50;;
23676;SDS011;31493;49.058;12.190;2023-09-07T03:32:56;8.90;;;4.45;;
23676;SDS011;31493;49.058;12.190;2023-09-07T03:35:23;5.25;;;3.83;;
23676;SDS011;31493;49.058;12.190;2023-09-07T03:37:50;7.28;;;4.22;;
23676;SDS011;31493;49.058;12.190;2023-09-07T03:40:18;6.22;;;4.20;;
23676;SDS011;31493;49.058;12.190;2023-09-07T03:42:45;5.47;;;4.32;;
23676;SDS011;31493;49.058;12.190;2023-09-07T03:45:12;6.38;;;4.38;;
23676;SDS011;31493;49.058;12.190;2023-09-07T03:47:39;8.23;;;4.63;;
23676;SDS011;31493;49.058;12.190;2023-09-07T03:50:07;5.60;;;4.45;;
23676;SDS011;31493;49.058;12.190;2023-09-07T03:52:34;6.88;;;4.70;;
23676;SDS011;31493;49.058;12.190;2023-09-07T03:55:01;9.35;;;4.57;;
23676;SDS011;31493;49.058;12.190;2023-09-07T03:57:30;5.80;;;4.40;;
23676;SDS011;31493;49.058;12.190;2023-09-07T03:59:57;6.63;;;4.63;;
23676;SDS011;31493;49.058;12.190;2023-09-07T04:02:24;7.03;;;4.43;;
23676;SDS011;31493;49.058;12.190;2023-09-07T04:04:52;5.72;;;4.55;;
23676;SDS011;31493;49.058;12.190;2023-09-07T04:09:47;7.53;;;4.55;;
23676;SDS011;31493;49.058;12.190;2023-09-07T04:12:14;8.07;;;4.53;;
23676;SDS011;31493;49.058;12.190;2023-09-07T04:14:42;5.72;;;4.47;;
23676;SDS011;31493;49.058;12.190;2023-09-07T04:17:10;8.73;;;4.75;;
23676;SDS011;31493;49.058;12.190;2023-09-07T04:19:37;7.25;;;4.55;;
23676;SDS011;31493;49.058;12.190;2023-09-07T04:22:04;8.82;;;4.70;;
23676;SDS011;31493;49.058;12.190;2023-09-07T04:24:31;5.35;;;4.50;;
23676;SDS011;31493;49.058;12.190;2023-09-07T04:26:59;6.35;;;4.65;;
23676;SDS011;31493;49.058;12.190;2023-09-07T04:29:26;6.00;;;4.55;;
23676;SDS011;31493;49.058;12.190;2023-09-07T04:31:55;8.45;;;4.35;;
23676;SDS011;31493;49.058;12.190;2023-09-07T04:34:22;7.13;;;4.32;;
23676;SDS011;31493;49.058;12.190;2023-09-07T04:36:50;8.27;;;4.47;;
23676;SDS011;31493;49.058;12.190;2023-09-07T04:39:17;5.43;;;4.47;;
23676;SDS011;31493;49.058;12.190;2023-09-07T04:41:44;6.80;;;4.65;;
23676;SDS011;31493;49.058;12.190;2023-09-07T04:44:11;7.00;;;4.75;;
23676;SDS011;31493;49.058;12.190;2023-09-07T04:46:38;7.93;;;4.45;;
23676;SDS011;31493;49.058;12.190;2023-09-07T04:49:07;6.93;;;4.78;;
23676;SDS011;31493;49.058;12.190;2023-09-07T04:51:34;7.75;;;4.90;;
23676;SDS011;31493;49.058;12.190;2023-09-07T04:54:01;9.90;;;4.93;;
23676;SDS011;31493;49.058;12.190;2023-09-07T04:56:28;7.43;;;4.80;;
23676;SDS011;31493;49.058;12.190;2023-09-07T04:58:55;6.07;;;4.97;;
23676;SDS011;31493;49.058;12.190;2023-09-07T05:01:22;5.40;;;4.50;;
23676;SDS011;31493;49.058;12.190;2023-09-07T05:03:49;6.95;;;4.88;;
23676;SDS011;31493;49.058;12.190;2023-09-07T05:06:19;5.70;;;4.53;;
23676;SDS011;31493;49.058;12.190;2023-09-07T05:08:47;5.50;;;4.50;;
23676;SDS011;31493;49.058;12.190;2023-09-07T05:11:14;5.57;;;4.80;;
23676;SDS011;31493;49.058;12.190;2023-09-07T05:13:41;6.13;;;4.60;;
23676;SDS011;31493;49.058;12.190;2023-09-07T05:16:08;6.43;;;4.30;;
23676;SDS011;31493;49.058;12.190;2023-09-07T05:18:35;6.65;;;4.60;;
23676;SDS011;31493;49.058;12.190;2023-09-07T05:21:10;5.63;;;4.53;;
23676;SDS011;31493;49.058;12.190;2023-09-07T05:23:39;8.52;;;4.75;;
23676;SDS011;31493;49.058;12.190;2023-09-07T05:26:06;9.68;;;4.60;;
23676;SDS011;31493;49.058;12.190;2023-09-07T05:28:33;8.65;;;4.97;;
23676;SDS011;31493;49.058;12.190;2023-09-07T05:31:00;5.85;;;4.70;;
23676;SDS011;31493;49.058;12.190;2023-09-07T05:33:27;5.30;;;4.63;;
23676;SDS011;31493;49.058;12.190;2023-09-07T05:35:54;5.35;;;4.50;;
23676;SDS011;31493;49.058;12.190;2023-09-07T05:38:21;8.15;;;4.65;;
23676;SDS011;31493;49.058;12.190;2023-09-07T05:40:50;6.93;;;4.70;;
23676;SDS011;31493;49.058;12.190;2023-09-07T05:43:19;8.70;;;4.93;;
23676;SDS011;31493;49.058;12.190;2023-09-07T05:45:47;9.40;;;5.10;;
23676;SDS011;31493;49.058;12.190;2023-09-07T05:48:14;10.68;;;5.13;;
23676;SDS011;31493;49.058;12.190;2023-09-07T05:50:42;8.25;;;4.88;;
23676;SDS011;31493;49.058;12.190;2023-09-07T05:53:10;7.90;;;4.47;;
23676;SDS011;31493;49.058;12.190;2023-09-07T05:55:37;5.80;;;4.30;;
23676;SDS011;31493;49.058;12.190;2023-09-07T05:58:06;7.63;;;4.95;;
23676;SDS011;31493;49.058;12.190;2023-09-07T06:00:35;6.80;;;4.32;;
23676;SDS011;31493;49.058;12.190;2023-09-07T06:03:04;6.30;;;4.70;;
23676;SDS011;31493;49.058;12.190;2023-09-07T06:05:33;8.05;;;4.82;;
23676;SDS011;31493;49.058;12.190;2023-09-07T06:08:00;8.07;;;4.63;;
23676;SDS011;31493;49.058;12.190;2023-09-07T06:10:27;8.05;;;4.40;;
23676;SDS011;31493;49.058;12.190;2023-09-07T06:12:54;8.32;;;4.63;;
23676;SDS011;31493;49.058;12.190;2023-09-07T06:15:23;6.43;;;4.68;;
23676;SDS011;31493;49.058;12.190;2023-09-07T06:17:50;7.10;;;4.90;;
23676;SDS011;31493;49.058;12.190;2023-09-07T06:20:17;7.35;;;4.22;;
23676;SDS011;31493;49.058;12.190;2023-09-07T06:22:45;11.00;;;5.57;;
23676;SDS011;31493;49.058;12.190;2023-09-07T06:25:12;10.02;;;4.45;;
23676;SDS011;31493;49.058;12.190;2023-09-07T06:27:39;10.02;;;4.85;;
23676;SDS011;31493;49.058;12.190;2023-09-07T06:30:06;9.85;;;4.70;;
23676;SDS011;31493;49.058;12.190;2023-09-07T06:32:36;7.45;;;4.45;;
23676;SDS011;31493;49.058;12.190;2023-09-07T06:35:04;7.53;;;4.75;;
23676;SDS011;31493;49.058;12.190;2023-09-07T06:37:32;5.82;;;4.47;;
23676;SDS011;31493;49.058;12.190;2023-09-07T06:39:59;5.93;;;4.30;;
23676;SDS011;31493;49.058;12.190;2023-09-07T06:42:26;14.18;;;4.65;;
23676;SDS011;31493;49.058;12.190;2023-09-07T06:44:53;5.82;;;4.35;;
23676;SDS011;31493;49.058;12.190;2023-09-07T06:47:20;8.80;;;4.78;;
23676;SDS011;31493;49.058;12.190;2023-09-07T06:49:48;9.57;;;4.70;;
23676;SDS011;31493;49.058;12.190;2023-09-07T06:52:15;6.28;;;4.05;;
23676;SDS011;31493;49.058;12.190;2023-09-07T06:54:42;9.25;;;4.53;;
23676;SDS011;31493;49.058;12.190;2023-09-07T06:57:09;7.10;;;4.15;;
23676;SDS011;31493;49.058;12.190;2023-09-07T06:59:36;6.82;;;4.30;;
23676;SDS011;31493;49.058;12.190;2023-09-07T07:02:03;8.63;;;4.30;;
23676;SDS011;31493;49.058;12.190;2023-09-07T07:04:31;7.43;;;4.28;;
23676;SDS011;31493;49.058;12.190;2023-09-07T07:06:59;7.65;;;4.70;;
23676;SDS011;31493;49.058;12.190;2023-09-07T07:09:29;8.70;;;4.28;;
23676;SDS011;31493;49.058;12.190;2023-09-07T07:11:57;8.20;;;4.60;;
23676;SDS011;31493;49.058;12.190;2023-09-07T07:14:26;6.50;;;4.63;;
23676;SDS011;31493;49.058;12.190;2023-09-07T07:16:53;7.55;;;4.22;;
23676;SDS011;31493;49.058;12.190;2023-09-07T07:19:20;8.68;;;4.35;;
23676;SDS011;31493;49.058;12.190;2023-09-07T07:21:48;5.18;;;4.50;;
23676;SDS011;31493;49.058;12.190;2023-09-07T07:24:16;5.18;;;4.20;;
23676;SDS011;31493;49.058;12.190;2023-09-07T07:26:44;5.63;;;4.70;;
23676;SDS011;31493;49.058;12.190;2023-09-07T07:29:12;5.63;;;4.63;;
23676;SDS011;31493;49.058;12.190;2023-09-07T07:31:39;6.10;;;4.20;;
23676;SDS011;31493;49.058;12.190;2023-09-07T07:34:09;9.20;;;4.30;;
23676;SDS011;31493;49.058;12.190;2023-09-07T07:36:36;6.18;;;4.18;;
23676;SDS011;31493;49.058;12.190;2023-09-07T07:39:06;8.95;;;4.30;;
23676;SDS011;31493;49.058;12.190;2023-09-07T07:41:35;6.65;;;4.05;;
23676;SDS011;31493;49.058;12.190;2023-09-07T07:44:03;5.38;;;4.22;;
23676;SDS011;31493;49.058;12.190;2023-09-07T07:46:30;6.85;;;4.20;;
23676;SDS011;31493;49.058;12.190;2023-09-07T07:48:57;5.85;;;4.10;;
23676;SDS011;31493;49.058;12.190;2023-09-07T07:51:24;8.30;;;4.20;;
23676;SDS011;31493;49.058;12.190;2023-09-07T07:53:53;6.18;;;4.47;;
23676;SDS011;31493;49.058;12.190;2023-09-07T07:56:20;6.95;;;4.25;;
23676;SDS011;31493;49.058;12.190;2023-09-07T07:58:49;8.73;;;4.30;;
23676;SDS011;31493;49.058;12.190;2023-09-07T08:01:16;5.05;;;3.85;;
23676;SDS011;31493;49.058;12.190;2023-09-07T08:03:45;5.43;;;4.10;;
23676;SDS011;31493;49.058;12.190;2023-09-07T08:06:13;11.27;;;4.20;;
23676;SDS011;31493;49.058;12.190;2023-09-07T08:08:40;7.97;;;4.43;;
23676;SDS011;31493;49.058;12.190;2023-09-07T08:11:07;6.75;;;4.03;;
23676;SDS011;31493;49.058;12.190;2023-09-07T08:13:35;5.22;;;4.35;;
23676;SDS011;31493;49.058;12.190;2023-09-07T08:16:04;7.00;;;4.13;;
23676;SDS011;31493;49.058;12.190;2023-09-07T08:18:32;5.45;;;4.10;;
23676;SDS011;31493;49.058;12.190;2023-09-07T08:21:00;6.60;;;4.25;;
23676;SDS011;31493;49.058;12.190;2023-09-07T08:23:27;6.68;;;3.95;;
23676;SDS011;31493;49.058;12.190;2023-09-07T08:25:54;5.40;;;4.05;;
23676;SDS011;31493;49.058;12.190;2023-09-07T08:28:21;7.13;;;4.18;;
23676;SDS011;31493;49.058;12.190;2023-09-07T08:30:49;6.45;;;4.38;;
23676;SDS011;31493;49.058;12.190;2023-09-07T08:33:20;6.03;;;4.15;;
23676;SDS011;31493;49.058;12.190;2023-09-07T08:35:52;4.35;;;3.75;;
23676;SDS011;31493;49.058;12.190;2023-09-07T08:38:21;6.38;;;4.15;;
23676;SDS011;31493;49.058;12.190;2023-09-07T08:40:51;4.95;;;4.00;;
23676;SDS011;31493;49.058;12.190;2023-09-07T08:43:27;7.40;;;3.67;;
23676;SDS011;31493;49.058;12.190;2023-09-07T08:45:58;5.90;;;4.07;;
23676;SDS011;31493;49.058;12.190;2023-09-07T08:48:38;6.60;;;4.15;;
23676;SDS011;31493;49.058;12.190;2023-09-07T08:51:07;4.80;;;3.92;;
23676;SDS011;31493;49.058;12.190;2023-09-07T08:53:37;7.18;;;4.20;;
23676;SDS011;31493;49.058;12.190;2023-09-07T08:56:06;9.23;;;4.13;;
23676;SDS011;31493;49.058;12.190;2023-09-07T08:58:35;8.13;;;4.13;;
23676;SDS011;31493;49.058;12.190;2023-09-07T09:01:02;6.55;;;3.88;;
23676;SDS011;31493;49.058;12.190;2023-09-07T09:03:29;5.72;;;3.60;;
23676;SDS011;31493;49.058;12.190;2023-09-07T09:05:58;7.95;;;4.15;;
23676;SDS011;31493;49.058;12.190;2023-09-07T09:08:25;4.38;;;3.72;;
23676;SDS011;31493;49.058;12.190;2023-09-07T09:10:59;7.95;;;3.80;;
23676;SDS011;31493;49.058;12.190;2023-09-07T09:13:29;5.65;;;3.72;;
23676;SDS011;31493;49.058;12.190;2023-09-07T09:15:58;5.32;;;3.63;;
23676;SDS011;31493;49.058;12.190;2023-09-07T09:18:26;5.18;;;3.67;;
23676;SDS011;31493;49.058;12.190;2023-09-07T09:20:54;5.53;;;4.00;;
23676;SDS011;31493;49.058;12.190;2023-09-07T09:23:23;7.03;;;3.90;;
23676;SDS011;31493;49.058;12.190;2023-09-07T09:25:50;6.68;;;3.72;;
23676;SDS011;31493;49.058;12.190;2023-09-07T09:28:17;4.45;;;3.95;;
23676;SDS011;31493;49.058;12.190;2023-09-07T09:30:44;8.50;;;3.90;;
23676;SDS011;31493;49.058;12.190;2023-09-07T09:33:11;4.97;;;3.75;;
23676;SDS011;31493;49.058;12.190;2023-09-07T09:35:38;5.38;;;3.75;;
23676;SDS011;31493;49.058;12.190;2023-09-07T09:38:05;6.55;;;3.90;;
23676;SDS011;31493;49.058;12.190;2023-09-07T09:40:34;7.35;;;3.42;;
23676;SDS011;31493;49.058;12.190;2023-09-07T09:43:01;6.85;;;3.92;;
23676;SDS011;31493;49.058;12.190;2023-09-07T09:45:29;4.77;;;3.90;;
23676;SDS011;31493;49.058;12.190;2023-09-07T09:47:57;6.07;;;3.70;;
23676;SDS011;31493;49.058;12.190;2023-09-07T09:50:25;7.13;;;4.03;;
23676;SDS011;31493;49.058;12.190;2023-09-07T09:52:53;8.52;;;3.83;;
23676;SDS011;31493;49.058;12.190;2023-09-07T09:55:21;9.02;;;3.83;;
23676;SDS011;31493;49.058;12.190;2023-09-07T09:57:50;7.75;;;3.72;;
23676;SDS011;31493;49.058;12.190;2023-09-07T10:00:17;6.43;;;3.60;;
23676;SDS011;31493;49.058;12.190;2023-09-07T10:02:54;5.28;;;3.90;;
23676;SDS011;31493;49.058;12.190;2023-09-07T10:05:26;4.55;;;3.72;;
23676;SDS011;31493;49.058;12.190;2023-09-07T10:07:59;5.78;;;3.70;;
23676;SDS011;31493;49.058;12.190;2023-09-07T10:10:34;6.22;;;3.80;;
23676;SDS011;31493;49.058;12.190;2023-09-07T10:13:04;3.97;;;3.58;;
23676;SDS011;31493;49.058;12.190;2023-09-07T10:15:32;6.85;;;3.55;;
23676;SDS011;31493;49.058;12.190;2023-09-07T10:18:09;4.15;;;3.42;;
23676;SDS011;31493;49.058;12.190;2023-09-07T10:20:48;5.53;;;3.45;;
23676;SDS011;31493;49.058;12.190;2023-09-07T10:23:17;4.05;;;3.40;;
23676;SDS011;31493;49.058;12.190;2023-09-07T10:25:47;6.55;;;4.00;;
23676;SDS011;31493;49.058;12.190;2023-09-07T10:28:22;6.03;;;3.50;;
23676;SDS011;31493;49.058;12.190;2023-09-07T10:31:00;5.00;;;3.70;;
23676;SDS011;31493;49.058;12.190;2023-09-07T10:33:30;5.95;;;3.45;;
23676;SDS011;31493;49.058;12.190;2023-09-07T10:35:57;5.47;;;3.60;;
23676;SDS011;31493;49.058;12.190;2023-09-07T10:38:24;5.68;;;3.65;;
23676;SDS011;31493;49.058;12.190;2023-09-07T10:40:55;4.68;;;3.30;;
23676;SDS011;31493;49.058;12.190;2023-09-07T10:43:27;4.22;;;3.33;;
23676;SDS011;31493;49.058;12.190;2023-09-07T10:45:55;4.97;;;3.53;;
23676;SDS011;31493;49.058;12.190;2023-09-07T10:48:23;5.05;;;3.60;;
23676;SDS011;31493;49.058;12.190;2023-09-07T10:50:51;5.50;;;3.27;;
23676;SDS011;31493;49.058;12.190;2023-09-07T10:53:25;7.15;;;3.38;;
23676;SDS011;31493;49.058;12.190;2023-09-07T10:55:54;4.60;;;3.40;;
23676;SDS011;31493;49.058;12.190;2023-09-07T10:58:24;4.18;;;3.20;;
23676;SDS011;31493;49.058;12.190;2023-09-07T11:00:53;3.75;;;3.05;;
23676;SDS011;31493;49.058;12.190;2023-09-07T11:03:21;4.03;;;3.13;;
23676;SDS011;31493;49.058;12.190;2023-09-07T11:05:48;6.88;;;3.30;;
23676;SDS011;31493;49.058;12.190;2023-09-07T11:08:18;5.05;;;3.17;;
23676;SDS011;31493;49.058;12.190;2023-09-07T11:10:45;4.00;;;3.40;;
23676;SDS011;31493;49.058;12.190;2023-09-07T11:13:12;4.45;;;3.65;;
23676;SDS011;31493;49.058;12.190;2023-09-07T11:15:39;3.67;;;3.33;;
23676;SDS011;31493;49.058;12.190;2023-09-07T11:18:10;5.55;;;3.60;;
23676;SDS011;31493;49.058;12.190;2023-09-07T11:20:38;4.47;;;3.40;;
23676;SDS011;31493;49.058;12.190;2023-09-07T11:23:05;4.65;;;3.30;;
23676;SDS011;31493;49.058;12.190;2023-09-07T11:25:36;8.13;;;3.40;;
23676;SDS011;31493;49.058;12.190;2023-09-07T11:28:04;7.18;;;3.50;;
23676;SDS011;31493;49.058;12.190;2023-09-07T11:30:32;6.53;;;3.45;;
23676;SDS011;31493;49.058;12.190;2023-09-07T11:33:02;7.68;;;3.60;;
23676;SDS011;31493;49.058;12.190;2023-09-07T11:35:32;5.38;;;3.28;;
23676;SDS011;31493;49.058;12.190;2023-09-07T11:38:00;5.53;;;3.50;;
23676;SDS011;31493;49.058;12.190;2023-09-07T11:40:29;4.53;;;3.60;;
23676;SDS011;31493;49.058;12.190;2023-09-07T11:42:56;8.68;;;3.45;;
23676;SDS011;31493;49.058;12.190;2023-09-07T11:45:24;8.57;;;3.90;;
23676;SDS011;31493;49.058;12.190;2023-09-07T11:47:51;5.28;;;3.45;;
23676;SDS011;31493;49.058;12.190;2023-09-07T11:50:18;6.65;;;3.55;;
23676;SDS011;31493;49.058;12.190;2023-09-07T11:52:47;7.43;;;3.90;;
23676;SDS011;31493;49.058;12.190;2023-09-07T11:55:14;5.97;;;3.78;;
23676;SDS011;31493;49.058;12.190;2023-09-07T11:57:42;4.55;;;3.58;;
23676;SDS011;31493;49.058;12.190;2023-09-07T12:00:10;6.70;;;3.63;;
23676;SDS011;31493;49.058;12.190;2023-09-07T12:02:38;7.75;;;3.50;;
23676;SDS011;31493;49.058;12.190;2023-09-07T12:05:06;5.87;;;3.37;;
23676;SDS011;31493;49.058;12.190;2023-09-07T12:07:35;7.28;;;3.15;;
23676;SDS011;31493;49.058;12.190;2023-09-07T12:10:04;4.13;;;3.72;;
23676;SDS011;31493;49.058;12.190;2023-09-07T12:12:31;6.50;;;3.28;;
23676;SDS011;31493;49.058;12.190;2023-09-07T12:15:00;5.13;;;3.40;;
23676;SDS011;31493;49.058;12.190;2023-09-07T12:17:29;5.05;;;3.53;;
23676;SDS011;31493;49.058;12.190;2023-09-07T12:19:56;4.20;;;3.45;;
23676;SDS011;31493;49.058;12.190;2023-09-07T12:22:23;5.68;;;3.40;;
23676;SDS011;31493;49.058;12.190;2023-09-07T12:24:50;5.05;;;3.40;;
23676;SDS011;31493;49.058;12.190;2023-09-07T12:27:18;4.20;;;3.67;;
23676;SDS011;31493;49.058;12.190;2023-09-07T12:32:12;4.68;;;3.15;;
23676;SDS011;31493;49.058;12.190;2023-09-07T12:34:39;4.28;;;3.13;;
23676;SDS011;31493;49.058;12.190;2023-09-07T12:37:06;4.60;;;3.60;;
23676;SDS011;31493;49.058;12.190;2023-09-07T12:39:33;5.85;;;3.40;;
23676;SDS011;31493;49.058;12.190;2023-09-07T12:42:00;8.77;;;3.92;;
23676;SDS011;31493;49.058;12.190;2023-09-07T12:44:30;5.80;;;3.38;;
23676;SDS011;31493;49.058;12.190;2023-09-07T12:46:57;3.95;;;3.53;;
23676;SDS011;31493;49.058;12.190;2023-09-07T12:49:24;6.80;;;3.50;;
23676;SDS011;31493;49.058;12.190;2023-09-07T12:51:51;5.93;;;3.30;;
23676;SDS011;31493;49.058;12.190;2023-09-07T12:54:18;7.30;;;3.65;;
23676;SDS011;31493;49.058;12.190;2023-09-07T12:56:45;9.65;;;3.70;;
23676;SDS011;31493;49.058;12.190;2023-09-07T12:59:13;4.78;;;3.70;;
23676;SDS011;31493;49.058;12.190;2023-09-07T13:01:41;5.28;;;3.65;;
23676;SDS011;31493;49.058;12.190;2023-09-07T13:04:08;6.90;;;3.30;;
23676;SDS011;31493;49.058;12.190;2023-09-07T13:06:37;5.45;;;3.40;;
23676;SDS011;31493;49.058;12.190;2023-09-07T13:09:05;4.43;;;3.70;;
23676;SDS011;31493;49.058;12.190;2023-09-07T13:11:33;4.90;;;3.53;;
23676;SDS011;31493;49.058;12.190;2023-09-07T13:14:00;5.63;;;3.45;;
23676;SDS011;31493;49.058;12.190;2023-09-07T13:16:27;5.15;;;3.10;;
23676;SDS011;31493;49.058;12.190;2023-09-07T13:18:55;3.75;;;3.38;;
23676;SDS011;31493;49.058;12.190;2023-09-07T13:23:49;5.82;;;3.30;;
23676;SDS011;31493;49.058;12.190;2023-09-07T13:26:16;6.32;;;3.72;;
23676;SDS011;31493;49.058;12.190;2023-09-07T13:28:43;4.18;;;3.42;;
23676;SDS011;31493;49.058;12.190;2023-09-07T13:31:10;5.35;;;3.25;;
23676;SDS011;31493;49.058;12.190;2023-09-07T13:33:37;6.07;;;3.55;;
23676;SDS011;31493;49.058;12.190;2023-09-07T13:36:06;6.78;;;3.40;;
23676;SDS011;31493;49.058;12.190;2023-09-07T13:38:35;6.95;;;3.25;;
23676;SDS011;31493;49.058;12.190;2023-09-07T13:41:02;5.90;;;3.53;;
23676;SDS011;31493;49.058;12.190;2023-09-07T13:43:29;4.05;;;3.38;;
23676;SDS011;31493;49.058;12.190;2023-09-07T13:45:56;4.85;;;3.53;;
23676;SDS011;31493;49.058;12.190;2023-09-07T13:48:23;3.88;;;3.47;;
23676;SDS011;31493;49.058;12.190;2023-09-07T13:50:50;5.78;;;3.60;;
23676;SDS011;31493;49.058;12.190;2023-09-07T13:53:18;5.32;;;3.40;;
23676;SDS011;31493;49.058;12.190;2023-09-07T13:55:45;6.50;;;3.50;;
23676;SDS011;31493;49.058;12.190;2023-09-07T13:58:12;4.50;;;3.25;;
23676;SDS011;31493;49.058;12.190;2023-09-07T14:00:39;8.10;;;3.70;;
23676;SDS011;31493;49.058;12.190;2023-09-07T14:03:06;5.68;;;3.30;;
23676;SDS011;31493;49.058;12.190;2023-09-07T14:05:33;9.68;;;3.70;;
23676;SDS011;31493;49.058;12.190;2023-09-07T14:08:00;6.40;;;3.33;;
23676;SDS011;31493;49.058;12.190;2023-09-07T14:10:29;6.78;;;3.70;;
23676;SDS011;31493;49.058;12.190;2023-09-07T14:12:56;7.20;;;3.58;;
23676;SDS011;31493;49.058;12.190;2023-09-07T14:15:23;7.65;;;3.55;;
23676;SDS011;31493;49.058;12.190;2023-09-07T14:17:52;4.50;;;3.70;;
23676;SDS011;31493;49.058;12.190;2023-09-07T14:20:19;9.98;;;4.10;;
23676;SDS011;31493;49.058;12.190;2023-09-07T14:22:54;8.63;;;3.75;;
23676;SDS011;31493;49.058;12.190;2023-09-07T14:25:25;3.83;;;3.30;;
23676;SDS011;31493;49.058;12.190;2023-09-07T14:27:53;8.98;;;3.88;;
23676;SDS011;31493;49.058;12.190;2023-09-07T14:30:20;5.53;;;3.42;;
23676;SDS011;31493;49.058;12.190;2023-09-07T14:32:48;6.50;;;4.18;;
23676;SDS011;31493;49.058;12.190;2023-09-07T14:35:15;4.20;;;3.60;;
23676;SDS011;31493;49.058;12.190;2023-09-07T14:37:42;8.10;;;3.65;;
23676;SDS011;31493;49.058;12.190;2023-09-07T14:40:09;5.25;;;3.58;;
23676;SDS011;31493;49.058;12.190;2023-09-07T14:42:38;7.97;;;4.10;;
23676;SDS011;31493;49.058;12.190;2023-09-07T14:45:07;7.82;;;4.13;;
23676;SDS011;31493;49.058;12.190;2023-09-07T14:47:35;5.45;;;3.97;;
23676;SDS011;31493;49.058;12.190;2023-09-07T14:50:02;3.63;;;3.20;;
23676;SDS011;31493;49.058;12.190;2023-09-07T14:52:30;6.18;;;3.70;;
23676;SDS011;31493;49.058;12.190;2023-09-07T14:55:02;10.73;;;3.80;;
23676;SDS011;31493;49.058;12.190;2023-09-07T14:57:32;6.60;;;3.40;;
23676;SDS011;31493;49.058;12.190;2023-09-07T14:59:59;7.28;;;3.72;;
23676;SDS011;31493;49.058;12.190;2023-09-07T15:02:27;4.78;;;3.70;;
23676;SDS011;31493;49.058;12.190;2023-09-07T15:04:54;5.70;;;3.80;;